Time;durP1;ratioP1;P1;durP2;ratioP2;P2;SDS_P1;SDS_P2;PMS_P1;PMS_P2;Temp;Humidity;BMP_temperature;BMP_pressure;BME280_temperature;BME280_humidity;BME280_pressure;Samples;Min_cycle;Max_cycle;Signal;HPM_P1;HPM_P2
2022/09/11 00:00:54;;;;;;;21.48;19.20;;;14.80;91.50;;;;;;5114824;28;20197;-85
2022/09/11 00:03:23;;;;;;;20.52;18.38;;;14.80;91.50;;;;;;5114882;28;20229;-85
2022/09/11 00:05:49;;;;;;;24.77;21.45;;;14.70;91.40;;;;;;5115434;28;20186;-85
2022/09/11 00:08:17;;;;;;;27.80;23.75;;;14.70;91.30;;;;;;5116336;28;20691;-85
2022/09/11 00:10:43;;;;;;;32.85;23.10;;;14.70;91.20;;;;;;5114523;28;20181;-85
2022/09/11 00:13:20;;;;;;;29.33;24.77;;;14.60;91.30;;;;;;5114435;28;20177;-85
2022/09/11 00:15:46;;;;;;;30.80;26.27;;;14.50;91.20;;;;;;5114442;28;20285;-85
2022/09/11 00:18:14;;;;;;;32.83;28.52;;;14.50;91.20;;;;;;5114368;28;20178;-85
2022/09/11 00:20:48;;;;;;;31.15;24.45;;;14.50;91.30;;;;;;5114517;28;20643;-85
2022/09/11 00:23:16;;;;;;;27.73;24.70;;;14.50;91.40;;;;;;5115682;28;20181;-86
2022/09/11 00:25:43;;;;;;;27.33;23.27;;;14.50;91.30;;;;;;5114577;28;20695;-86
2022/09/11 00:28:14;;;;;;;28.85;23.98;;;14.50;91.30;;;;;;5115504;28;20166;-85
2022/09/11 00:30:42;;;;;;;27.67;24.27;;;14.50;91.20;;;;;;5115399;28;20249;-85
2022/09/11 00:33:09;;;;;;;32.95;27.80;;;14.50;91.10;;;;;;5114193;28;20170;-85
2022/09/11 00:35:34;;;;;;;33.78;27.10;;;14.50;91.10;;;;;;5115553;28;20170;-86
2022/09/11 00:38:00;;;;;;;33.53;27.75;;;14.50;91.10;;;;;;5113918;28;20174;-86
2022/09/11 00:40:25;;;;;;;31.88;26.95;;;14.50;91.00;;;;;;5115243;28;20178;-85
2022/09/11 00:42:52;;;;;;;32.13;28.63;;;14.50;90.90;;;;;;5113822;28;20658;-85
2022/09/11 00:45:26;;;;;;;36.60;29.92;;;14.50;90.90;;;;;;5113765;28;20248;-85
2022/09/11 00:47:57;;;;;;;34.83;29.10;;;14.50;91.00;;;;;;5115107;28;20173;-85
2022/09/11 00:50:25;;;;;;;34.92;30.33;;;14.50;91.30;;;;;;5113818;28;20174;-85
2022/09/11 00:52:58;;;;;;;35.38;29.23;;;14.50;91.40;;;;;;5114957;28;20231;-85
2022/09/11 00:55:27;;;;;;;32.50;27.23;;;14.70;91.40;;;;;;5113519;28;20178;-85
2022/09/11 00:58:00;;;;;;;30.23;27.00;;;14.60;91.50;;;;;;5113606;28;20189;-85
2022/09/11 01:00:26;;;;;;;31.50;27.42;;;14.60;91.50;;;;;;5113570;28;20181;-85
2022/09/11 01:02:53;;;;;;;34.15;30.40;;;14.70;91.60;;;;;;5113438;28;20217;-85
2022/09/11 01:05:21;;;;;;;34.65;29.80;;;14.70;91.70;;;;;;5113528;28;20248;-86
2022/09/11 01:07:48;;;;;;;34.75;31.20;;;14.80;91.70;;;;;;5113438;28;20169;-86
2022/09/11 01:10:14;;;;;;;31.88;28.40;;;14.80;91.70;;;;;;5113442;28;20592;-86
2022/09/11 01:12:49;;;;;;;31.60;28.48;;;14.80;91.60;;;;;;5113371;28;20174;-85
2022/09/11 01:15:22;;;;;;;33.33;28.63;;;14.70;91.70;;;;;;5113609;28;20244;-85
2022/09/11 01:18:01;;;;;;;29.45;26.40;;;14.70;91.70;;;;;;5114776;28;20279;-85
2022/09/11 01:20:42;;;;;;;28.73;25.50;;;14.60;91.80;;;;;;5114373;27;20169;-85
2022/09/11 01:23:42;;;;;;;28.13;25.13;;;14.60;91.80;;;;;;5114348;28;20238;-85
2022/09/11 01:26:41;;;;;;;26.25;23.52;;;14.50;91.80;;;;;;5114266;28;20592;-85
2022/09/11 01:29:25;;;;;;;27.08;21.75;;;14.50;91.80;;;;;;5113082;28;20177;-85
2022/09/11 01:32:07;;;;;;;22.70;20.45;;;14.40;91.80;;;;;;5113116;28;20162;-86
2022/09/11 01:34:41;;;;;;;21.73;19.63;;;14.40;91.80;;;;;;5112947;28;20582;-85
2022/09/11 01:37:14;;;;;;;22.20;19.52;;;14.30;91.80;;;;;;5112884;28;20281;-86
2022/09/11 01:39:45;;;;;;;27.65;23.58;;;14.30;91.80;;;;;;5113113;28;20520;-85
2022/09/11 01:42:18;;;;;;;29.27;25.73;;;14.30;91.80;;;;;;5114611;28;20518;-85
2022/09/11 01:44:51;;;;;;;29.40;26.25;;;14.30;91.80;;;;;;5113739;28;20186;-85
2022/09/11 01:47:19;;;;;;;32.80;26.83;;;14.30;91.90;;;;;;5113437;28;20658;-85
2022/09/11 01:49:54;;;;;;;31.92;26.33;;;14.30;91.90;;;;;;5112593;28;20543;-85
2022/09/11 01:52:28;;;;;;;36.53;27.67;;;14.20;92.00;;;;;;5114288;28;20153;-85
2022/09/11 01:55:00;;;;;;;36.28;27.15;;;14.20;92.10;;;;;;5112910;28;20166;-86
2022/09/11 01:57:36;;;;;;;34.20;27.93;;;14.30;92.30;;;;;;5114121;28;20202;-85
2022/09/11 02:00:07;;;;;;;35.47;28.07;;;14.30;92.40;;;;;;5113896;28;20530;-85
2022/09/11 02:02:36;;;;;;;45.83;30.97;;;14.30;92.50;;;;;;5113489;28;20201;-85
2022/09/11 02:05:14;;;;;;;34.77;29.83;;;14.20;92.70;;;;;;5112494;28;20181;-85
2022/09/11 02:07:51;;;;;;;34.07;29.57;;;14.20;92.90;;;;;;5112345;28;20189;-85
2022/09/11 02:10:22;;;;;;;39.00;30.53;;;14.20;93.00;;;;;;5112454;28;20624;-85
2022/09/11 02:13:01;;;;;;;43.17;29.47;;;14.20;93.10;;;;;;5112432;28;20173;-85
2022/09/11 02:15:36;;;;;;;38.73;30.10;;;14.20;93.20;;;;;;5112338;28;20166;-85
2022/09/11 02:18:14;;;;;;;34.37;30.03;;;14.30;93.30;;;;;;5113662;28;20181;-85
2022/09/11 02:20:41;;;;;;;49.70;32.07;;;14.30;93.40;;;;;;5112398;28;20166;-85
2022/09/11 02:23:06;;;;;;;53.17;32.33;;;14.30;93.40;;;;;;5113466;28;20196;-84
2022/09/11 02:25:32;;;;;;;51.28;31.58;;;14.40;93.60;;;;;;5113815;28;20166;-85
2022/09/11 02:27:58;;;;;;;46.13;31.50;;;14.50;93.60;;;;;;5112221;28;20705;-86
2022/09/11 02:30:23;;;;;;;51.90;33.63;;;14.50;93.70;;;;;;5112219;28;20170;-85
2022/09/11 02:32:49;;;;;;;62.97;33.23;;;14.50;93.70;;;;;;5113595;28;20539;-85
2022/09/11 02:35:15;;;;;;;56.30;32.97;;;14.50;93.80;;;;;;5113490;28;20173;-85
2022/09/11 02:38:13;;;;;;;49.23;33.40;;;14.50;93.90;;;;;;5112072;28;20343;-85
2022/09/11 02:40:56;;;;;;;57.67;32.47;;;14.50;93.90;;;;;;5113382;28;20198;-85
2022/09/11 02:43:49;;;;;;;57.28;33.08;;;14.50;94.00;;;;;;5112118;28;20655;-85
2022/09/11 02:46:35;;;;;;;52.47;32.95;;;14.50;94.10;;;;;;5113781;28;20236;-85
2022/09/11 02:49:14;;;;;;;51.97;31.97;;;14.50;94.10;;;;;;5112255;28;20166;-85
2022/09/11 02:51:48;;;;;;;53.45;33.47;;;14.50;94.20;;;;;;5112085;28;20158;-85
2022/09/11 02:54:30;;;;;;;47.43;31.80;;;14.50;94.20;;;;;;5113751;28;20199;-85
2022/09/11 02:57:19;;;;;;;51.88;34.22;;;14.50;94.20;;;;;;5113407;28;20667;-85
2022/09/11 02:59:56;;;;;;;44.73;30.83;;;14.50;94.20;;;;;;5112284;28;20610;-86
2022/09/11 03:02:23;;;;;;;49.60;31.98;;;14.50;94.30;;;;;;5114698;28;20213;-86
2022/09/11 03:04:49;;;;;;;55.90;31.23;;;14.50;94.30;;;;;;5115792;28;20166;-86
2022/09/11 03:07:15;;;;;;;59.58;30.73;;;14.50;94.30;;;;;;5115683;28;20196;-86
2022/09/11 03:09:41;;;;;;;68.15;28.98;;;14.50;94.30;;;;;;5116950;28;20166;-86
2022/09/11 03:12:06;;;;;;;73.72;28.05;;;14.50;94.30;;;;;;5116001;28;20170;-86
2022/09/11 03:14:32;;;;;;;47.25;26.83;;;14.60;94.30;;;;;;5117134;28;20173;-86
2022/09/11 03:16:58;;;;;;;87.20;25.88;;;14.50;94.20;;;;;;5116864;27;20671;-85
2022/09/11 03:19:23;;;;;;;98.43;26.75;;;14.50;94.30;;;;;;5115507;28;20660;-85
2022/09/11 03:21:50;;;;;;;107.43;27.00;;;14.30;94.20;;;;;;5115628;28;20655;-85
2022/09/11 03:24:16;;;;;;;157.40;27.07;;;14.30;94.20;;;;;;5116776;28;20209;-85
2022/09/11 03:26:41;;;;;;;132.07;26.27;;;14.20;94.20;;;;;;5115481;28;20602;-85
2022/09/11 03:29:07;;;;;;;157.90;28.10;;;14.10;94.20;;;;;;5115454;28;20176;-85
2022/09/11 03:31:33;;;;;;;132.67;27.17;;;14.00;94.20;;;;;;5115516;28;20176;-85
2022/09/11 03:33:58;;;;;;;125.87;26.27;;;14.00;94.20;;;;;;5116745;28;20665;-85
2022/09/11 03:36:24;;;;;;;112.90;24.60;;;13.90;94.30;;;;;;5116812;28;20235;-85
2022/09/11 03:38:51;;;;;;;114.00;24.37;;;13.80;94.20;;;;;;5115348;28;20595;-85
2022/09/11 03:41:17;;;;;;;134.27;24.13;;;13.80;94.30;;;;;;5116471;28;20262;-85
2022/09/11 03:43:43;;;;;;;96.50;23.80;;;13.70;94.30;;;;;;5115238;28;20759;-85
2022/09/11 03:46:09;;;;;;;124.27;23.27;;;13.70;94.30;;;;;;5115111;28;20284;-86
2022/09/11 03:48:35;;;;;;;98.47;23.60;;;13.70;94.30;;;;;;5116442;28;20180;-86
2022/09/11 03:51:01;;;;;;;30.23;23.23;;;13.70;94.30;;;;;;5116553;28;20599;-86
2022/09/11 03:53:26;;;;;;;26.60;23.77;;;13.60;94.30;;;;;;5115127;28;20178;-86
2022/09/11 03:55:53;;;;;;;24.03;21.53;;;13.70;94.40;;;;;;5116087;28;20694;-86
2022/09/11 03:58:19;;;;;;;23.73;21.33;;;13.70;94.40;;;;;;5116167;28;20170;-86
2022/09/11 04:00:45;;;;;;;23.67;21.47;;;13.70;94.40;;;;;;5116216;28;20185;-86
2022/09/11 04:03:11;;;;;;;22.67;20.40;;;13.70;94.40;;;;;;5116355;28;20190;-86
2022/09/11 04:05:37;;;;;;;20.47;18.57;;;13.70;94.40;;;;;;5115860;28;20174;-85
2022/09/11 04:08:05;;;;;;;24.33;19.87;;;13.80;94.40;;;;;;5115884;28;20244;-86
2022/09/11 04:10:32;;;;;;;22.00;19.90;;;13.70;94.30;;;;;;5116192;28;20525;-86
2022/09/11 04:12:59;;;;;;;21.77;19.47;;;13.70;94.40;;;;;;5115356;28;20166;-86
2022/09/11 04:15:24;;;;;;;33.87;20.60;;;13.80;94.40;;;;;;5114456;28;20177;-86
2022/09/11 04:17:50;;;;;;;24.57;21.30;;;13.80;94.40;;;;;;5114636;28;20231;-86
2022/09/11 04:20:15;;;;;;;29.77;21.00;;;13.80;94.40;;;;;;5115700;28;20174;-86
2022/09/11 04:22:41;;;;;;;210.40;24.57;;;13.90;94.40;;;;;;5115612;28;20564;-86
2022/09/11 04:25:07;;;;;;;33.40;19.55;;;13.90;94.40;;;;;;5115575;28;20174;-86
2022/09/11 04:27:33;;;;;;;77.88;19.48;;;13.90;94.50;;;;;;5114773;28;20194;-86
2022/09/11 04:29:59;;;;;;;152.73;19.05;;;14.00;94.40;;;;;;5115444;28;20719;-85
2022/09/11 04:32:24;;;;;;;91.53;16.10;;;14.00;94.40;;;;;;5115613;28;20227;-86
2022/09/11 04:34:50;;;;;;;58.43;16.40;;;14.00;94.40;;;;;;5114114;28;20170;-86
2022/09/11 04:37:15;;;;;;;49.70;16.17;;;13.90;94.40;;;;;;5113975;28;20198;-86
2022/09/11 04:39:42;;;;;;;24.70;15.30;;;13.90;94.40;;;;;;5115242;28;20672;-86
2022/09/11 04:42:09;;;;;;;55.93;13.47;;;13.90;94.50;;;;;;5113934;28;20178;-86
2022/09/11 04:44:35;;;;;;;20.50;14.77;;;13.90;94.40;;;;;;5113999;28;20174;-86
2022/09/11 04:47:01;;;;;;;63.80;15.13;;;13.80;94.40;;;;;;5114201;28;20218;-86
2022/09/11 04:49:26;;;;;;;17.50;15.07;;;13.80;94.40;;;;;;5113924;28;20647;-86
2022/09/11 04:51:53;;;;;;;21.20;15.97;;;13.80;94.40;;;;;;5113761;28;20174;-85
2022/09/11 04:54:22;;;;;;;16.70;15.20;;;13.80;94.40;;;;;;5115023;28;20222;-86
2022/09/11 04:56:48;;;;;;;31.23;16.10;;;13.80;94.40;;;;;;5114886;28;20268;-86
2022/09/11 04:59:18;;;;;;;58.67;16.70;;;13.90;94.40;;;;;;5115272;28;20219;-86
2022/09/11 05:01:45;;;;;;;82.47;15.90;;;13.90;94.40;;;;;;5113342;28;20281;-85
2022/09/11 05:04:14;;;;;;;49.17;15.47;;;13.80;94.30;;;;;;5113572;28;20202;-85
2022/09/11 05:06:41;;;;;;;18.63;16.87;;;13.80;94.40;;;;;;5113416;28;20225;-86
2022/09/11 05:09:08;;;;;;;33.47;16.77;;;13.80;94.30;;;;;;5113472;28;20170;-86
2022/09/11 05:11:37;;;;;;;18.03;16.30;;;13.80;94.40;;;;;;5113412;28;20265;-86
2022/09/11 05:14:02;;;;;;;33.40;16.90;;;13.90;94.40;;;;;;5113324;28;20205;-86
2022/09/11 05:16:29;;;;;;;18.27;16.67;;;13.90;94.40;;;;;;5113241;28;20224;-86
2022/09/11 05:18:56;;;;;;;79.53;18.57;;;13.90;94.40;;;;;;5113396;28;20174;-86
2022/09/11 05:21:23;;;;;;;87.17;18.07;;;14.00;94.40;;;;;;5114891;28;20178;-86
2022/09/11 05:23:52;;;;;;;18.57;16.67;;;13.90;94.40;;;;;;5112395;28;20202;-86
2022/09/11 05:26:23;;;;;;;35.00;17.25;;;14.00;94.40;;;;;;5113190;28;20687;-86
2022/09/11 05:29:01;;;;;;;71.63;17.77;;;14.00;94.40;;;;;;5114653;28;20190;-87
2022/09/11 05:31:27;;;;;;;45.40;17.05;;;14.10;94.40;;;;;;5114551;28;20170;-86
2022/09/11 05:33:54;;;;;;;72.72;17.67;;;14.10;94.40;;;;;;5113419;28;20185;-86
2022/09/11 05:36:21;;;;;;;88.73;19.60;;;14.00;94.40;;;;;;5112948;28;20204;-87
2022/09/11 05:38:47;;;;;;;59.83;20.77;;;14.00;94.50;;;;;;5114281;28;20223;-86
2022/09/11 05:41:14;;;;;;;66.97;17.93;;;14.00;94.50;;;;;;5114135;28;20603;-86
2022/09/11 05:43:41;;;;;;;24.17;18.43;;;14.00;94.50;;;;;;5112794;28;20225;-86
2022/09/11 05:46:10;;;;;;;20.23;18.13;;;14.10;94.50;;;;;;5112972;28;20280;-86
2022/09/11 05:48:36;;;;;;;26.83;18.13;;;14.10;94.60;;;;;;5112982;28;20174;-86
2022/09/11 05:51:08;;;;;;;26.03;18.23;;;14.20;94.60;;;;;;5114281;28;20243;-86
2022/09/11 05:53:34;;;;;;;32.77;17.20;;;14.20;94.60;;;;;;5112799;28;20224;-86
2022/09/11 05:56:14;;;;;;;30.93;16.83;;;14.20;94.60;;;;;;5114238;28;20194;-86
2022/09/11 05:58:41;;;;;;;47.57;18.17;;;14.20;94.60;;;;;;5114148;28;20179;-85
2022/09/11 06:01:15;;;;;;;23.20;16.97;;;14.20;94.60;;;;;;5112911;28;20186;-86
2022/09/11 06:03:42;;;;;;;27.77;17.57;;;14.20;94.60;;;;;;5114141;27;20223;-86
2022/09/11 06:06:09;;;;;;;18.53;16.73;;;14.20;94.60;;;;;;5113941;28;20697;-86
2022/09/11 06:08:36;;;;;;;19.80;17.70;;;14.20;94.70;;;;;;5113853;28;20643;-86
2022/09/11 06:11:06;;;;;;;25.90;18.03;;;14.30;94.70;;;;;;5114159;28;20191;-86
2022/09/11 06:13:37;;;;;;;21.98;18.60;;;14.30;94.70;;;;;;5112983;28;20607;-86
2022/09/11 06:16:06;;;;;;;21.40;17.50;;;14.30;94.80;;;;;;5112731;28;20285;-87
2022/09/11 06:18:31;;;;;;;23.52;19.17;;;14.30;94.80;;;;;;5112612;28;20170;-86
2022/09/11 06:20:59;;;;;;;26.75;19.05;;;14.30;94.80;;;;;;5113664;28;20590;-87
2022/09/11 06:23:24;;;;;;;22.87;19.33;;;14.40;94.80;;;;;;5112364;28;20702;-86
2022/09/11 06:25:53;;;;;;;30.55;20.77;;;14.40;94.80;;;;;;5112315;28;20197;-87
2022/09/11 06:28:21;;;;;;;23.38;18.90;;;14.40;94.80;;;;;;5112293;28;20230;-86
2022/09/11 06:30:50;;;;;;;33.05;19.02;;;14.50;94.80;;;;;;5114212;28;20170;-86
2022/09/11 06:33:19;;;;;;;31.50;18.98;;;14.60;94.80;;;;;;5113652;28;20726;-89
2022/09/11 06:36:00;;;;;;;21.30;18.63;;;14.60;94.80;;;;;;5114540;28;20671;-85
2022/09/11 06:38:26;;;;;;;20.88;18.73;;;14.60;94.80;;;;;;5116255;28;20185;-87
2022/09/11 06:40:53;;;;;;;20.77;18.38;;;14.60;94.80;;;;;;5116381;28;20683;-86
2022/09/11 06:43:19;;;;;;;19.88;17.77;;;14.60;94.80;;;;;;5117621;28;20255;-86
2022/09/11 06:45:47;;;;;;;33.75;18.17;;;14.60;94.80;;;;;;5116369;28;20194;-87
2022/09/11 06:48:17;;;;;;;28.13;17.88;;;14.60;94.70;;;;;;5117636;28;20166;-86
2022/09/11 06:50:43;;;;;;;20.60;18.25;;;14.70;94.80;;;;;;5116447;28;20199;-86
2022/09/11 06:53:10;;;;;;;19.02;16.70;;;14.70;94.80;;;;;;5117684;28;20170;-86
2022/09/11 06:55:37;;;;;;;21.85;18.42;;;14.70;94.80;;;;;;5117480;28;20212;-86
2022/09/11 06:58:02;;;;;;;21.45;18.00;;;14.80;94.80;;;;;;5116375;28;20177;-86
2022/09/11 07:00:28;;;;;;;18.80;16.88;;;14.80;94.80;;;;;;5117428;28;20169;-86
2022/09/11 07:02:54;;;;;;;22.73;17.90;;;14.80;94.80;;;;;;5115981;28;20218;-86
2022/09/11 07:05:26;;;;;;;25.65;18.23;;;14.80;94.70;;;;;;5116106;28;20600;-85
2022/09/11 07:07:52;;;;;;;26.60;18.63;;;14.80;94.70;;;;;;5117349;28;20280;-86
2022/09/11 07:10:18;;;;;;;23.52;18.20;;;14.90;94.70;;;;;;5116390;28;20536;-87
2022/09/11 07:12:44;;;;;;;19.83;17.80;;;14.90;94.70;;;;;;5116157;28;20310;-87
2022/09/11 07:15:10;;;;;;;20.55;18.45;;;14.90;94.70;;;;;;5117440;28;20212;-89
2022/09/11 07:17:36;;;;;;;20.42;18.27;;;14.90;94.70;;;;;;5117018;28;20213;-90
2022/09/11 07:20:04;;;;;;;20.55;16.95;;;14.80;94.60;;;;;;5117226;28;20178;-87
2022/09/11 07:22:33;;;;;;;18.23;16.35;;;14.90;94.60;;;;;;5118352;28;20682;-88
2022/09/11 07:24:59;;;;;;;16.92;15.10;;;14.90;94.70;;;;;;5118382;28;20658;-89
2022/09/11 07:27:26;;;;;;;18.00;16.23;;;15.00;94.70;;;;;;5117244;28;20190;-89
2022/09/11 07:29:51;;;;;;;17.73;15.63;;;15.00;94.60;;;;;;5117133;28;20209;-89
2022/09/11 07:32:17;;;;;;;16.83;15.00;;;15.00;94.60;;;;;;5115971;28;20177;-89
2022/09/11 07:34:42;;;;;;;15.70;14.10;;;15.00;94.60;;;;;;5116250;28;20257;-88
2022/09/11 07:37:08;;;;;;;15.65;14.15;;;15.00;94.50;;;;;;5116835;28;20186;-88
2022/09/11 07:39:33;;;;;;;18.75;14.90;;;15.00;94.50;;;;;;5117653;28;20170;-88
2022/09/11 07:41:59;;;;;;;18.23;15.15;;;15.00;94.40;;;;;;5118127;28;20199;-88
2022/09/11 07:44:24;;;;;;;15.60;14.13;;;15.00;94.30;;;;;;5118851;28;20273;-88
2022/09/11 07:46:50;;;;;;;15.68;14.10;;;15.00;94.30;;;;;;5116035;28;20270;-88
2022/09/11 07:49:16;;;;;;;16.83;14.80;;;15.00;94.30;;;;;;5116733;28;20547;-87
2022/09/11 07:51:42;;;;;;;15.43;14.02;;;15.20;94.30;;;;;;5116564;28;20177;-87
2022/09/11 07:54:11;;;;;;;15.68;14.07;;;15.20;94.30;;;;;;5116831;28;20270;-88
2022/09/11 07:56:37;;;;;;;16.27;13.23;;;15.30;94.20;;;;;;5118147;28;20190;-88
2022/09/11 07:59:06;;;;;;;15.13;13.70;;;15.30;94.20;;;;;;5116696;28;20197;-88
2022/09/11 08:01:32;;;;;;;15.25;13.75;;;15.50;94.20;;;;;;5116860;28;20185;-88
2022/09/11 08:04:00;;;;;;;15.02;13.52;;;15.40;94.00;;;;;;5116809;28;20705;-88
2022/09/11 08:06:28;;;;;;;17.48;14.27;;;15.50;94.00;;;;;;5117632;28;20220;-88
2022/09/11 08:08:57;;;;;;;14.65;13.02;;;15.60;93.90;;;;;;5118838;28;20542;-88
2022/09/11 08:11:23;;;;;;;13.32;11.93;;;15.70;93.90;;;;;;5115913;28;20170;-88
2022/09/11 08:13:54;;;;;;;13.10;11.93;;;15.50;93.60;;;;;;5116596;28;20174;-88
2022/09/11 08:16:22;;;;;;;12.13;11.02;;;15.70;93.50;;;;;;5114897;28;20194;-87
2022/09/11 08:18:47;;;;;;;11.15;10.15;;;15.70;93.40;;;;;;5114803;28;20213;-87
2022/09/11 08:21:14;;;;;;;11.23;10.20;;;15.70;93.10;;;;;;5116416;28;20220;-87
2022/09/11 08:23:42;;;;;;;14.77;13.32;;;15.70;93.00;;;;;;5114965;28;20585;-88
2022/09/11 08:26:08;;;;;;;14.68;13.30;;;15.90;93.10;;;;;;5114944;28;20190;-88
2022/09/11 08:28:35;;;;;;;13.52;12.25;;;16.00;93.00;;;;;;5116349;28;20556;-88
2022/09/11 08:31:01;;;;;;;14.68;13.23;;;16.00;92.90;;;;;;5116328;28;20169;-88
2022/09/11 08:33:27;;;;;;;15.25;13.63;;;16.00;92.40;;;;;;5116118;28;20170;-88
2022/09/11 08:35:53;;;;;;;14.30;12.90;;;15.90;92.40;;;;;;5114610;28;20198;-87
2022/09/11 08:38:19;;;;;;;13.55;12.25;;;15.90;92.30;;;;;;5114848;28;20177;-88
2022/09/11 08:40:45;;;;;;;15.60;14.10;;;16.00;92.30;;;;;;5114552;28;20182;-87
2022/09/11 08:43:23;;;;;;;15.70;14.02;;;16.00;92.10;;;;;;5114487;28;20245;-88
2022/09/11 08:45:52;;;;;;;16.23;14.68;;;16.00;91.80;;;;;;5115617;28;20193;-88
2022/09/11 08:48:34;;;;;;;13.82;12.52;;;15.90;91.80;;;;;;5114005;28;20205;-90
2022/09/11 08:51:00;;;;;;;11.13;10.00;;;16.10;91.80;;;;;;5115300;28;20693;-89
2022/09/11 08:53:29;;;;;;;11.07;9.98;;;16.20;91.80;;;;;;5113958;28;20174;-88
2022/09/11 08:56:02;;;;;;;11.30;10.10;;;16.20;91.70;;;;;;5114648;28;20194;-89
2022/09/11 08:59:05;;;;;;;10.38;9.48;;;16.30;91.60;;;;;;5113930;28;20174;-86
2022/09/11 09:01:48;;;;;;;12.32;9.10;;;16.40;91.40;;;;;;5113754;28;20189;-88
2022/09/11 09:04:32;;;;;;;8.65;7.85;;;16.30;91.10;;;;;;5113791;28;20221;-88
2022/09/11 09:07:17;;;;;;;7.63;6.80;;;16.30;90.70;;;;;;5113754;28;20214;-88
2022/09/11 09:10:12;;;;;;;8.73;6.88;;;16.20;90.20;;;;;;5114954;28;20173;-90
2022/09/11 09:13:02;;;;;;;7.88;7.15;;;16.30;90.30;;;;;;5114007;28;20170;-91
2022/09/11 09:15:49;;;;;;;7.80;6.32;;;16.50;89.90;;;;;;5113983;28;20162;-91
2022/09/11 09:18:27;;;;;;;6.75;6.15;;;16.40;88.90;;;;;;5113976;28;20772;-87
2022/09/11 09:21:05;;;;;;;7.78;6.43;;;16.60;88.70;;;;;;5113735;28;20624;-89
2022/09/11 09:23:50;;;;;;;7.25;6.55;;;16.80;88.50;;;;;;5114898;28;20178;-88
2022/09/11 09:26:17;;;;;;;8.65;5.47;;;17.10;88.30;;;;;;5114332;28;20197;-84
2022/09/11 09:28:46;;;;;;;7.75;6.95;;;17.40;87.90;;;;;;5114598;28;20261;-86
2022/09/11 09:31:16;;;;;;;8.15;6.90;;;17.80;87.90;;;;;;5116481;28;20191;-86
2022/09/11 09:34:18;;;;;;;6.93;6.32;;;17.90;87.20;;;;;;5114628;28;20307;-87
2022/09/11 09:37:18;;;;;;;5.97;5.40;;;17.90;85.90;;;;;;5093569;28;20206;-85
2022/09/11 09:39:44;;;;;;;5.35;4.95;;;17.80;85.00;;;;;;5114342;28;20227;-87
2022/09/11 09:42:31;;;;;;;5.28;4.85;;;17.60;84.10;;;;;;5114795;28;20180;-85
2022/09/11 09:45:25;;;;;;;4.75;4.35;;;17.70;85.50;;;;;;5116007;28;20182;-85
2022/09/11 09:47:52;;;;;;;3.88;3.58;;;18.10;85.70;;;;;;5115435;28;20161;-86
2022/09/11 09:50:20;;;;;;;3.78;3.47;;;18.30;83.70;;;;;;5114309;28;20186;-85
2022/09/11 09:52:48;;;;;;;4.60;2.90;;;18.30;80.80;;;;;;5114015;28;20166;-85
2022/09/11 09:55:17;;;;;;;2.92;2.70;;;18.50;80.80;;;;;;5114158;28;20268;-85
2022/09/11 09:57:43;;;;;;;3.35;2.88;;;18.70;80.40;;;;;;5114513;28;20207;-85
2022/09/11 10:00:08;;;;;;;3.88;3.33;;;18.60;79.50;;;;;;5114256;28;20170;-84
2022/09/11 10:02:38;;;;;;;5.47;4.97;;;18.60;79.90;;;;;;5112966;28;20260;-86
2022/09/11 10:05:33;;;;;;;4.78;4.38;;;18.30;81.60;;;;;;5112768;28;20566;-85
2022/09/11 10:08:02;;;;;;;4.55;4.00;;;18.20;82.40;;;;;;5114674;28;20146;-83
2022/09/11 10:10:33;;;;;;;4.57;3.97;;;18.20;82.30;;;;;;5113514;28;20173;-86
2022/09/11 10:13:24;;;;;;;4.50;3.83;;;18.20;82.10;;;;;;5115393;28;20197;-85
2022/09/11 10:15:52;;;;;;;3.83;3.53;;;18.20;82.70;;;;;;5113568;28;20663;-85
2022/09/11 10:18:27;;;;;;;4.05;3.03;;;18.50;82.40;;;;;;5114161;28;20178;-85
2022/09/11 10:21:12;;;;;;;3.28;2.95;;;18.90;82.10;;;;;;5113993;28;20173;-85
2022/09/11 10:23:59;;;;;;;3.30;3.00;;;19.10;80.80;;;;;;5114600;28;20186;-85
2022/09/11 10:26:36;;;;;;;4.25;2.40;;;19.10;79.40;;;;;;5113868;28;20189;-86
2022/09/11 10:29:20;;;;;;;2.63;2.30;;;19.10;78.90;;;;;;5114976;28;20154;-85
2022/09/11 10:32:02;;;;;;;2.13;1.63;;;19.10;78.60;;;;;;5114039;28;20155;-88
2022/09/11 10:34:35;;;;;;;1.92;1.83;;;18.90;77.10;;;;;;5112301;28;20174;-87
2022/09/11 10:37:28;;;;;;;1.85;1.70;;;19.00;78.10;;;;;;5112233;28;20672;-87
2022/09/11 10:40:04;;;;;;;2.10;1.80;;;19.00;77.10;;;;;;5109618;28;20224;-88
2022/09/11 10:42:31;;;;;;;2.63;1.50;;;18.80;78.10;;;;;;5112161;28;20208;-84
2022/09/11 10:45:11;;;;;;;2.03;1.55;;;18.80;77.70;;;;;;5113545;28;20640;-85
2022/09/11 10:47:37;;;;;;;2.53;1.60;;;18.70;76.90;;;;;;5113552;28;20280;-88
2022/09/11 10:50:22;;;;;;;1.52;1.42;;;18.70;77.80;;;;;;5112355;28;20270;-87
2022/09/11 10:52:57;;;;;;;1.83;1.50;;;18.60;77.20;;;;;;5112834;28;20239;-89
2022/09/11 10:55:49;;;;;;;1.73;1.63;;;18.50;77.10;;;;;;5114025;28;20207;-87
2022/09/11 10:58:24;;;;;;;2.33;1.67;;;18.50;78.30;;;;;;5113844;28;20200;-86
2022/09/11 11:00:50;;;;;;;1.63;1.52;;;18.40;78.60;;;;;;5113345;28;20188;-87
2022/09/11 11:03:23;;;;;;;3.47;1.30;;;18.40;78.10;;;;;;5113950;27;20212;-88
2022/09/11 11:06:22;;;;;;;3.58;1.83;;;18.50;78.10;;;;;;5112992;28;20198;-87
2022/09/11 11:09:12;;;;;;;2.95;1.45;;;18.50;77.60;;;;;;5112661;28;20178;-89
2022/09/11 11:11:59;;;;;;;5.20;1.80;;;18.60;77.70;;;;;;5113445;28;20154;-87
2022/09/11 11:14:45;;;;;;;2.15;1.75;;;18.70;77.60;;;;;;5113472;28;20204;-88
2022/09/11 11:17:42;;;;;;;2.85;1.55;;;18.70;77.10;;;;;;5113409;28;20194;-87
2022/09/11 11:20:31;;;;;;;2.15;1.65;;;18.70;77.40;;;;;;5112599;28;20174;-87
2022/09/11 11:23:38;;;;;;;2.13;1.70;;;18.70;76.80;;;;;;5115588;28;20197;-88
2022/09/11 11:26:36;;;;;;;4.20;1.90;;;18.90;77.50;;;;;;5062610;28;20210;-87
2022/09/11 11:29:35;;;;;;;2.10;1.90;;;19.00;76.30;;;;;;5116964;28;20680;-89
2022/09/11 11:32:07;;;;;;;1.73;1.60;;;18.80;76.50;;;;;;5116207;28;20538;-88
2022/09/11 11:34:42;;;;;;;1.80;1.70;;;19.00;76.70;;;;;;5115763;28;20183;-86
2022/09/11 11:37:22;;;;;;;2.17;1.55;;;19.10;76.50;;;;;;5116541;28;20243;-88
2022/09/11 11:40:12;;;;;;;1.70;1.55;;;19.30;76.50;;;;;;5115639;28;20177;-87
2022/09/11 11:42:49;;;;;;;2.35;1.67;;;19.60;74.50;;;;;;5115449;28;20214;-89
2022/09/11 11:45:31;;;;;;;2.17;1.27;;;19.70;75.30;;;;;;5116545;28;20146;-89
2022/09/11 11:48:00;;;;;;;2.38;1.30;;;20.00;73.00;;;;;;5115254;28;20193;-90
2022/09/11 11:50:35;;;;;;;1.73;1.30;;;20.20;71.80;;;;;;5115175;28;20177;-90
2022/09/11 11:53:03;;;;;;;14.80;1.70;;;20.30;71.70;;;;;;5116396;28;20651;-89
2022/09/11 11:55:47;;;;;;;1.23;0.95;;;20.50;71.20;;;;;;5116311;28;20174;-90
2022/09/11 11:58:35;;;;;;;2.20;1.33;;;20.60;70.10;;;;;;5115129;28;20645;-88
2022/09/11 12:01:05;;;;;;;1.67;1.10;;;20.90;69.50;;;;;;5114939;28;20197;-86
2022/09/11 12:03:41;;;;;;;1.45;1.25;;;21.20;69.80;;;;;;5114952;28;20198;-87
2022/09/11 12:06:07;;;;;;;1.48;1.00;;;21.20;66.40;;;;;;5114858;28;20208;-87
2022/09/11 12:08:42;;;;;;;1.42;0.90;;;21.20;67.90;;;;;;5116007;28;20162;-89
2022/09/11 12:11:10;;;;;;;3.50;1.23;;;21.40;66.60;;;;;;5114808;28;20169;-86
2022/09/11 12:13:42;;;;;;;2.63;1.40;;;20.70;65.90;;;;;;5116034;28;20170;-88
2022/09/11 12:16:26;;;;;;;2.30;1.50;;;21.00;68.50;;;;;;5114892;28;20205;-89
2022/09/11 12:19:06;;;;;;;1.73;1.10;;;21.50;67.50;;;;;;5116037;28;20532;-88
2022/09/11 12:21:38;;;;;;;1.85;1.40;;;21.40;66.60;;;;;;5114709;28;20256;-89
2022/09/11 12:24:03;;;;;;;1.45;1.13;;;21.50;66.70;;;;;;5114562;28;20297;-87
2022/09/11 12:26:30;;;;;;;1.50;1.20;;;21.70;64.20;;;;;;5114453;28;20639;-88
2022/09/11 12:29:11;;;;;;;3.95;1.45;;;21.90;65.30;;;;;;5115743;28;20166;-88
2022/09/11 12:31:49;;;;;;;0.90;0.90;;;21.70;62.70;;;;;;5114448;28;20251;-87
2022/09/11 12:34:36;;;;;;;1.52;1.02;;;20.90;62.50;;;;;;5114086;28;20170;-88
2022/09/11 12:37:06;;;;;;;3.28;0.63;;;21.30;66.10;;;;;;5115070;28;20194;-88
2022/09/11 12:39:49;;;;;;;2.00;1.13;;;21.50;63.90;;;;;;5114269;28;20181;-88
2022/09/11 12:42:23;;;;;;;0.85;0.85;;;21.60;61.70;;;;;;5115514;28;20237;-88
2022/09/11 12:44:48;;;;;;;1.50;1.00;;;21.80;63.00;;;;;;5115715;28;20176;-87
2022/09/11 12:47:26;;;;;;;1.88;1.13;;;21.70;63.10;;;;;;5115187;28;20186;-88
2022/09/11 12:50:15;;;;;;;0.88;0.77;;;21.80;63.20;;;;;;5114052;28;20174;-88
2022/09/11 12:52:43;;;;;;;0.98;0.77;;;22.00;61.90;;;;;;5114837;28;20182;-89
2022/09/11 12:55:28;;;;;;;0.80;0.77;;;22.00;60.70;;;;;;5113878;28;20602;-86
2022/09/11 12:57:54;;;;;;;0.60;0.60;;;22.50;59.80;;;;;;5113818;28;20707;-87